Portada
METAR-TAF:

METAR-TAF

Aeropuertos :

Aeropuerto de Svalbard

Longyearbyen, Noruega

latitud: 78-15N, longitud: 015-28E, altitud: 2 m

Observación

El informe se hizo hace 14 minutos, a las 20:50 UTC
Viento 11 kt del oeste-suroeste
Temperatura 4°C
Humedad 75%
Presión 1014 hPa
Visibilidad 10 km o más
Cielo nuboso a una altura de 3500 ft

METAR: ENSB 222050Z 25011KT 9999 BKN035 04/M00 Q1014 RMK WIND 1400FT 27008KT

Hora: 23:04 (21:04 UTC)

Pronóstico

Pronóstico válido del 22 a las 18 UTC al 23 a las 18 UTC
Viento 9 kt del oeste-suroeste
Visibilidad 10 km o más
Escasas nubes a una altura de 500 ft
Cielo nuboso a una altura de 2000 ft
Temporalmente
del 22 a las 18 UTC al 23 a las 06 UTC
Nubes dispersas a una altura de 400 ft
Cielo nuboso a una altura de 1200 ft

TAF: ENSB 2218/2318 25009KT 9999 FEW005 BKN020 TEMPO 2218/2306 SCT004 BKN012

Observaciones y pronósticos meteorológicos de más de 4000 aeropuertos (mensajes METAR y TAF).

Los puntos amarillos y rojos representan las estaciones disponibles.

Ponga el ratón en el punto deseado para ver el nombre de la estación.

Haga clic para ver las observaciones y los pronósticos meteorológicos.

Para cambiar el mapa : haga clic en los botones verdes con una cruz de color negro para hacer un zoom, en el botón verde con un guión para alejar o en las flechas verdes para mapas adyacentes.


METAR-TAF: